createdAt,value
2023-10-06T00:02:22.124Z,5.40
2023-10-06T00:04:49.258Z,5.20
2023-10-06T00:07:18.685Z,5.30
2023-10-06T00:09:45.469Z,5.10
2023-10-06T00:12:14.671Z,9.07
2023-10-06T00:14:42.058Z,6.30
2023-10-06T00:17:19.195Z,5.40
2023-10-06T00:19:48.021Z,7.18
2023-10-06T00:22:17.999Z,6.67
2023-10-06T00:24:51.321Z,5.45
2023-10-06T00:27:24.810Z,6.45
2023-10-06T00:29:57.553Z,5.93
2023-10-06T00:32:28.775Z,5.70
2023-10-06T00:35:09.564Z,5.90
2023-10-06T00:37:40.949Z,5.47
2023-10-06T00:40:21.306Z,5.93
2023-10-06T00:42:58.949Z,5.80
2023-10-06T00:45:25.740Z,5.43
2023-10-06T00:47:56.490Z,5.70
2023-10-06T00:50:25.211Z,5.57
2023-10-06T00:52:52.910Z,5.13
2023-10-06T00:55:20.822Z,5.30
2023-10-06T00:57:54.712Z,5.72
2023-10-06T01:00:22.419Z,5.87
2023-10-06T01:02:49.874Z,5.55
2023-10-06T01:05:17.957Z,5.93
2023-10-06T01:07:47.791Z,6.30
2023-10-06T01:10:29.538Z,6.72
2023-10-06T01:12:58.122Z,6.00
2023-10-06T01:15:30.143Z,6.10
2023-10-06T01:17:59.606Z,5.70
2023-10-06T01:20:35.448Z,5.30
2023-10-06T01:23:02.461Z,6.07
2023-10-06T01:25:36.013Z,5.50
2023-10-06T01:28:06.384Z,5.47
2023-10-06T01:30:33.067Z,5.63
2023-10-06T01:32:59.935Z,5.32
2023-10-06T01:35:27.927Z,6.18
2023-10-06T01:38:00.853Z,7.70
2023-10-06T01:40:28.519Z,6.57
2023-10-06T01:42:55.373Z,6.13
2023-10-06T01:45:23.015Z,5.35
2023-10-06T01:48:10.842Z,5.72
2023-10-06T01:50:37.510Z,5.50
2023-10-06T01:53:07.577Z,5.20
2023-10-06T01:55:39.627Z,6.32
2023-10-06T01:58:08.387Z,5.68
2023-10-06T02:00:37.078Z,5.65
2023-10-06T02:03:13.865Z,5.23
2023-10-06T02:05:40.573Z,5.90
2023-10-06T02:08:08.033Z,5.85
2023-10-06T02:10:34.798Z,5.57
2023-10-06T02:13:01.452Z,6.35
2023-10-06T02:15:28.116Z,5.37
2023-10-06T02:17:54.885Z,5.63
2023-10-06T02:20:27.263Z,6.35
2023-10-06T02:22:56.443Z,5.53
2023-10-06T02:25:23.175Z,5.68
2023-10-06T02:27:51.357Z,5.50
2023-10-06T02:30:21.161Z,5.97
2023-10-06T02:32:47.882Z,6.18
2023-10-06T02:35:16.112Z,5.90
2023-10-06T02:37:46.610Z,6.00
2023-10-06T02:40:13.797Z,5.47
2023-10-06T02:42:53.125Z,5.90
2023-10-06T02:45:22.838Z,6.07
2023-10-06T02:47:50.040Z,5.45
2023-10-06T02:50:25.882Z,5.68
2023-10-06T02:52:56.038Z,5.70
2023-10-06T02:55:32.189Z,5.78
2023-10-06T02:57:59.248Z,6.00
2023-10-06T03:00:25.920Z,5.90
2023-10-06T03:02:57.564Z,5.90
2023-10-06T03:05:34.791Z,5.73
2023-10-06T03:08:02.349Z,5.97
2023-10-06T03:10:36.373Z,6.38
2023-10-06T03:13:05.011Z,6.20
2023-10-06T03:15:39.660Z,5.93
2023-10-06T03:18:07.061Z,5.63
2023-10-06T03:20:49.182Z,5.80
2023-10-06T03:23:49.342Z,5.50
2023-10-06T03:26:35.403Z,6.40
2023-10-06T03:29:04.279Z,6.57
2023-10-06T03:31:46.033Z,6.93
2023-10-06T03:34:17.638Z,6.65
2023-10-06T03:36:54.202Z,7.22
2023-10-06T03:39:32.095Z,7.00
2023-10-06T03:42:02.092Z,6.68
2023-10-06T03:44:31.184Z,7.20
2023-10-06T03:47:02.190Z,6.95
2023-10-06T03:49:34.220Z,6.95
2023-10-06T03:52:00.954Z,6.90
2023-10-06T03:54:27.620Z,7.85
2023-10-06T03:56:55.079Z,7.57
2023-10-06T03:59:23.978Z,6.95
2023-10-06T04:01:52.684Z,6.93
2023-10-06T04:04:23.797Z,6.65
2023-10-06T04:06:51.179Z,7.50
2023-10-06T04:09:28.217Z,7.37
2023-10-06T04:11:58.057Z,7.32
2023-10-06T04:14:24.700Z,7.45
2023-10-06T04:16:54.561Z,7.43
2023-10-06T04:19:21.266Z,7.13
2023-10-06T04:21:49.340Z,6.70
2023-10-06T04:24:16.107Z,6.55
2023-10-06T04:26:42.857Z,7.15
2023-10-06T04:29:10.481Z,7.53
2023-10-06T04:31:38.098Z,23.35
2023-10-06T04:34:05.280Z,9.00
2023-10-06T04:36:33.122Z,7.57
2023-10-06T04:38:59.946Z,7.80
2023-10-06T04:41:27.046Z,7.85
2023-10-06T04:43:53.904Z,14.48
2023-10-06T04:46:20.646Z,8.53
2023-10-06T04:48:49.438Z,7.65
2023-10-06T04:51:16.276Z,7.63
2023-10-06T04:53:46.410Z,7.38
2023-10-06T04:56:13.392Z,9.80
2023-10-06T04:58:41.193Z,14.77
2023-10-06T05:01:09.260Z,11.13
2023-10-06T05:03:46.244Z,8.30
2023-10-06T05:06:17.152Z,7.88
2023-10-06T05:08:53.574Z,7.75
2023-10-06T05:11:21.712Z,7.47
2023-10-06T05:13:55.315Z,8.60
2023-10-06T05:16:24.547Z,8.27
2023-10-06T05:18:52.347Z,8.43
2023-10-06T05:21:20.524Z,8.07
2023-10-06T05:23:47.772Z,7.80
2023-10-06T05:26:16.545Z,8.80
2023-10-06T05:28:44.177Z,14.52
2023-10-06T05:31:12.185Z,26.00
2023-10-06T05:33:41.774Z,22.58
2023-10-06T05:36:15.072Z,14.50
2023-10-06T05:38:46.452Z,10.30
2023-10-06T05:41:14.031Z,10.07
2023-10-06T05:43:41.741Z,8.48
2023-10-06T05:46:10.563Z,8.60
2023-10-06T05:48:37.773Z,8.20
2023-10-06T05:51:10.295Z,9.35
2023-10-06T05:53:44.299Z,9.38
2023-10-06T05:56:11.751Z,8.23
2023-10-06T05:58:39.140Z,8.95
2023-10-06T06:01:12.512Z,9.30
2023-10-06T06:03:46.111Z,10.25
2023-10-06T06:06:22.813Z,10.07
2023-10-06T06:08:50.102Z,10.52
2023-10-06T06:11:17.624Z,8.77
2023-10-06T06:13:46.991Z,8.27
2023-10-06T06:16:17.374Z,8.25
2023-10-06T06:18:45.449Z,8.50
2023-10-06T06:21:13.700Z,8.20
2023-10-06T06:23:40.799Z,8.27
2023-10-06T06:26:08.505Z,8.60
2023-10-06T06:28:37.700Z,7.90
2023-10-06T06:31:06.257Z,8.45
2023-10-06T06:33:34.201Z,8.23
2023-10-06T06:36:01.886Z,8.77
2023-10-06T06:38:29.363Z,8.30
2023-10-06T06:43:26.787Z,8.77
2023-10-06T06:45:54.830Z,8.13
2023-10-06T06:48:22.044Z,8.75
2023-10-06T06:50:49.915Z,8.57
2023-10-06T06:53:19.917Z,8.68
2023-10-06T06:55:47.326Z,8.40
2023-10-06T06:58:17.702Z,8.27
2023-10-06T07:00:49.030Z,9.05
2023-10-06T07:03:16.485Z,8.00
2023-10-06T07:05:44.214Z,8.35
2023-10-06T07:08:12.801Z,8.15
2023-10-06T07:10:47.527Z,8.00
2023-10-06T07:13:14.875Z,7.70
2023-10-06T07:15:42.810Z,7.10
2023-10-06T07:18:11.607Z,6.95
2023-10-06T07:20:38.638Z,6.72
2023-10-06T07:23:05.760Z,6.80
2023-10-06T07:25:32.660Z,6.90
2023-10-06T07:28:00.423Z,6.23
2023-10-06T07:30:30.471Z,6.82
2023-10-06T07:32:57.592Z,6.63
2023-10-06T07:35:32.167Z,5.97
2023-10-06T07:37:59.513Z,6.00
2023-10-06T07:40:29.060Z,5.97
2023-10-06T07:42:59.887Z,5.85
2023-10-06T07:45:31.556Z,6.20
2023-10-06T07:47:58.668Z,6.15
2023-10-06T07:50:30.112Z,5.93
2023-10-06T07:52:58.101Z,6.10
2023-10-06T07:55:24.880Z,5.95
2023-10-06T07:57:52.412Z,6.00
2023-10-06T08:00:30.893Z,6.03
2023-10-06T08:03:00.136Z,5.97
2023-10-06T08:05:29.551Z,5.60
2023-10-06T08:08:00.940Z,6.05
2023-10-06T08:10:31.215Z,6.10
2023-10-06T08:13:02.042Z,5.95
2023-10-06T08:15:29.394Z,6.60
2023-10-06T08:17:57.303Z,6.20
2023-10-06T08:20:28.699Z,6.18
2023-10-06T08:22:58.005Z,6.28
2023-10-06T08:25:26.618Z,6.60
2023-10-06T08:27:54.138Z,7.30
2023-10-06T08:30:21.557Z,6.80
2023-10-06T08:32:51.172Z,7.00
2023-10-06T08:35:18.127Z,7.05
2023-10-06T08:37:46.453Z,6.70
2023-10-06T08:40:18.301Z,7.47
2023-10-06T08:43:01.043Z,7.17
2023-10-06T08:45:29.933Z,8.35
2023-10-06T08:48:03.835Z,9.82
2023-10-06T08:50:34.072Z,9.25
2023-10-06T08:53:05.917Z,8.73
2023-10-06T08:55:33.575Z,7.80
2023-10-06T08:58:03.548Z,8.32
2023-10-06T09:00:35.689Z,8.30
2023-10-06T09:03:09.433Z,8.05
2023-10-06T09:05:41.189Z,8.15
2023-10-06T09:08:10.362Z,9.10
2023-10-06T09:10:41.895Z,7.97
2023-10-06T09:13:14.085Z,7.70
2023-10-06T09:15:42.173Z,7.30
2023-10-06T09:18:21.530Z,7.88
2023-10-06T09:20:50.101Z,7.27
2023-10-06T09:23:41.710Z,7.90
2023-10-06T09:26:12.850Z,7.07
2023-10-06T09:28:53.861Z,6.72
2023-10-06T09:31:45.700Z,6.35
2023-10-06T09:34:13.457Z,7.03
2023-10-06T09:36:45.769Z,6.80
2023-10-06T09:39:16.878Z,6.35
2023-10-06T09:41:43.720Z,6.22
2023-10-06T09:44:13.662Z,5.65
2023-10-06T09:46:44.709Z,6.33
2023-10-06T09:49:19.466Z,6.45
2023-10-06T09:51:47.358Z,5.78
2023-10-06T09:54:15.748Z,5.90
2023-10-06T09:56:43.257Z,5.53
2023-10-06T09:59:13.924Z,5.90
2023-10-06T10:01:46.987Z,5.30
2023-10-06T10:04:15.809Z,5.63
2023-10-06T10:06:46.532Z,5.40
2023-10-06T10:09:18.412Z,4.82
2023-10-06T10:12:02.396Z,4.97
2023-10-06T10:14:53.624Z,5.45
2023-10-06T10:17:38.478Z,4.90
2023-10-06T10:20:10.470Z,4.85
2023-10-06T10:22:38.788Z,5.18
2023-10-06T10:28:20.554Z,4.70
2023-10-06T10:30:52.157Z,4.80
2023-10-06T10:33:23.000Z,5.32
2023-10-06T10:36:15.770Z,5.38
2023-10-06T10:38:43.466Z,4.70
2023-10-06T10:41:11.627Z,4.75
2023-10-06T10:46:43.411Z,4.63
2023-10-06T10:49:11.637Z,4.40
2023-10-06T10:52:03.533Z,4.70
2023-10-06T10:54:33.684Z,4.50
2023-10-06T10:57:15.022Z,4.53
2023-10-06T11:00:01.403Z,4.60
2023-10-06T11:02:43.126Z,4.28
2023-10-06T11:05:11.159Z,4.70
2023-10-06T11:07:37.970Z,4.72
2023-10-06T11:10:05.218Z,4.57
2023-10-06T11:12:32.078Z,4.75
2023-10-06T11:15:17.639Z,4.68
2023-10-06T11:17:45.470Z,4.30
2023-10-06T11:20:28.582Z,4.15
2023-10-06T11:23:00.875Z,4.20
2023-10-06T11:25:29.725Z,4.50
2023-10-06T11:28:05.831Z,4.18
2023-10-06T11:30:34.483Z,3.70
2023-10-06T11:33:03.624Z,4.30
2023-10-06T11:35:32.601Z,4.10
2023-10-06T11:38:00.070Z,4.10
2023-10-06T11:40:27.562Z,4.40
2023-10-06T11:42:54.914Z,4.23
2023-10-06T11:45:25.990Z,4.00
2023-10-06T11:47:54.209Z,4.60
2023-10-06T11:50:26.069Z,4.18
2023-10-06T11:52:54.036Z,4.22
2023-10-06T11:55:32.134Z,4.10
2023-10-06T11:58:02.390Z,4.30
2023-10-06T12:00:37.107Z,4.38
2023-10-06T12:03:04.439Z,3.95
2023-10-06T12:05:31.619Z,3.70
2023-10-06T12:08:05.695Z,3.70
2023-10-06T12:10:35.887Z,3.65
2023-10-06T12:13:06.401Z,3.80
2023-10-06T12:15:33.268Z,3.17
2023-10-06T12:18:01.268Z,4.05
2023-10-06T12:20:28.736Z,4.00
2023-10-06T12:22:55.976Z,4.32
2023-10-06T12:25:24.542Z,3.90
2023-10-06T12:27:51.523Z,4.10
2023-10-06T12:30:19.094Z,3.90
2023-10-06T12:32:49.328Z,3.70
2023-10-06T12:35:19.659Z,3.90
2023-10-06T12:37:48.008Z,3.47
2023-10-06T12:40:16.146Z,3.80
2023-10-06T12:42:44.311Z,4.50
2023-10-06T12:45:18.715Z,3.47
2023-10-06T12:47:47.405Z,3.60
2023-10-06T12:50:18.821Z,3.67
2023-10-06T12:52:53.741Z,3.50
2023-10-06T12:55:25.913Z,3.50
2023-10-06T12:57:55.080Z,3.40
2023-10-06T13:00:22.040Z,3.60
2023-10-06T13:02:49.793Z,3.33
2023-10-06T13:05:23.932Z,3.33
2023-10-06T13:07:52.717Z,2.90
2023-10-06T13:10:23.953Z,3.30
2023-10-06T13:12:51.687Z,3.20
2023-10-06T13:15:19.879Z,3.50
2023-10-06T13:17:49.251Z,3.05
2023-10-06T13:20:17.447Z,2.83
2023-10-06T13:22:46.311Z,3.00
2023-10-06T13:25:13.499Z,2.90
2023-10-06T13:27:42.674Z,2.90
2023-10-06T13:30:15.996Z,2.63
2023-10-06T13:32:43.662Z,2.90
2023-10-06T13:35:17.331Z,2.70
2023-10-06T13:37:45.482Z,2.90
2023-10-06T13:40:14.023Z,2.65
2023-10-06T13:42:46.900Z,2.60
2023-10-06T13:45:16.559Z,2.72
2023-10-06T13:47:46.107Z,2.60
2023-10-06T13:50:15.658Z,2.45
2023-10-06T13:52:43.882Z,2.50
2023-10-06T13:55:12.099Z,2.47
2023-10-06T13:57:40.772Z,2.75
2023-10-06T14:00:14.502Z,2.57
2023-10-06T14:02:42.787Z,2.72
2023-10-06T14:05:10.773Z,2.65
2023-10-06T14:07:38.941Z,2.30
2023-10-06T14:10:13.763Z,2.50
2023-10-06T14:12:43.999Z,2.60
2023-10-06T14:15:23.456Z,2.50
2023-10-06T14:17:53.843Z,2.60
2023-10-06T14:20:29.152Z,2.63
2023-10-06T14:22:56.591Z,2.63
2023-10-06T14:25:27.547Z,2.57
2023-10-06T14:27:57.463Z,2.85
2023-10-06T14:30:26.817Z,2.80
2023-10-06T14:33:09.014Z,2.60
2023-10-06T14:36:10.980Z,2.78
2023-10-06T14:38:43.991Z,2.47
2023-10-06T14:41:20.953Z,2.88
2023-10-06T14:44:10.712Z,2.95
2023-10-06T14:46:39.467Z,2.80
2023-10-06T14:49:14.490Z,2.67
2023-10-06T14:51:43.024Z,2.57
2023-10-06T14:54:12.166Z,2.80
2023-10-06T14:56:39.735Z,2.60
2023-10-06T14:59:09.841Z,2.55
2023-10-06T15:01:41.244Z,2.50
2023-10-06T15:04:28.188Z,2.77
2023-10-06T15:06:54.879Z,2.90
2023-10-06T15:09:24.317Z,4.32
2023-10-06T15:11:53.864Z,4.10
2023-10-06T15:14:26.300Z,3.80
2023-10-06T15:16:54.687Z,3.30
2023-10-06T15:19:26.167Z,3.30
2023-10-06T15:21:56.080Z,2.90
2023-10-06T15:24:23.281Z,3.53
2023-10-06T15:26:51.192Z,3.50
2023-10-06T15:29:22.456Z,3.07
2023-10-06T15:31:50.226Z,2.80
2023-10-06T15:34:18.586Z,2.95
2023-10-06T15:36:45.385Z,3.28
2023-10-06T15:39:23.766Z,3.67
2023-10-06T15:41:51.455Z,3.50
2023-10-06T15:44:19.850Z,3.20
2023-10-06T15:46:47.321Z,3.80
2023-10-06T15:49:18.274Z,3.92
2023-10-06T15:51:48.431Z,3.80
2023-10-06T15:54:16.934Z,4.00
2023-10-06T15:56:44.657Z,5.95
2023-10-06T15:59:15.681Z,10.30
2023-10-06T16:01:44.514Z,14.07
2023-10-06T16:04:13.617Z,7.88
2023-10-06T16:06:42.837Z,6.50
2023-10-06T16:09:10.896Z,4.50
2023-10-06T16:11:41.301Z,3.75
2023-10-06T16:14:08.378Z,3.35
2023-10-06T16:16:36.035Z,3.40
2023-10-06T16:19:07.040Z,2.97
2023-10-06T16:21:34.419Z,3.88
2023-10-06T16:24:04.767Z,6.47
2023-10-06T16:26:31.644Z,6.80
2023-10-06T16:29:01.661Z,4.47
2023-10-06T16:31:29.080Z,4.00
2023-10-06T16:33:56.377Z,3.38
2023-10-06T16:36:23.830Z,3.40
2023-10-06T16:38:52.003Z,2.92
2023-10-06T16:41:24.398Z,2.78
2023-10-06T16:43:56.809Z,3.00
2023-10-06T16:46:24.224Z,3.00
2023-10-06T16:48:51.158Z,2.80
2023-10-06T16:51:21.356Z,3.00
2023-10-06T16:53:49.799Z,2.55
2023-10-06T16:56:17.217Z,3.03
2023-10-06T16:58:44.125Z,2.78
2023-10-06T17:01:11.002Z,3.35
2023-10-06T17:03:38.539Z,3.33
2023-10-06T17:06:08.533Z,4.57
2023-10-06T17:08:36.214Z,4.77
2023-10-06T17:11:13.382Z,9.88
2023-10-06T17:13:40.216Z,7.22
2023-10-06T17:16:06.915Z,6.38
2023-10-06T17:18:37.618Z,6.80
2023-10-06T17:21:08.207Z,5.40
2023-10-06T17:23:35.337Z,6.50
2023-10-06T17:26:03.133Z,8.13
2023-10-06T17:28:31.024Z,7.07
2023-10-06T17:31:01.823Z,4.85
2023-10-06T17:33:29.961Z,5.00
2023-10-06T17:35:58.002Z,14.40
2023-10-06T17:38:25.289Z,6.55
2023-10-06T17:40:57.241Z,4.13
2023-10-06T17:43:24.690Z,3.70
2023-10-06T17:45:52.574Z,3.30
2023-10-06T17:48:19.869Z,3.40
2023-10-06T17:50:49.514Z,4.30
2023-10-06T17:53:16.766Z,4.00
2023-10-06T17:55:52.263Z,5.50
2023-10-06T17:58:19.084Z,5.50
2023-10-06T18:00:45.970Z,5.43
2023-10-06T18:03:12.930Z,5.40
2023-10-06T18:05:44.174Z,4.72
2023-10-06T18:08:10.857Z,4.22
2023-10-06T18:10:37.580Z,4.10
2023-10-06T18:13:04.524Z,3.85
2023-10-06T18:15:33.392Z,4.40
2023-10-06T18:18:00.471Z,4.20
2023-10-06T18:20:27.180Z,4.95
2023-10-06T18:22:54.792Z,4.17
2023-10-06T18:25:21.731Z,3.88
2023-10-06T18:27:48.461Z,4.28
2023-10-06T18:30:17.147Z,4.20
2023-10-06T18:32:43.865Z,4.20
2023-10-06T18:35:10.570Z,4.70
2023-10-06T18:37:38.788Z,4.30
2023-10-06T18:40:07.043Z,4.82
2023-10-06T18:42:34.000Z,6.30
2023-10-06T18:45:00.715Z,7.40
2023-10-06T18:47:28.731Z,6.13
2023-10-06T18:49:55.533Z,5.43
2023-10-06T18:52:22.922Z,5.57
2023-10-06T18:54:49.606Z,5.82
2023-10-06T18:57:16.346Z,4.45
2023-10-06T18:59:43.106Z,4.43
2023-10-06T19:02:10.504Z,5.07
2023-10-06T19:04:37.299Z,4.93
2023-10-06T19:07:04.013Z,6.35
2023-10-06T19:09:32.206Z,5.10
2023-10-06T19:11:59.210Z,4.80
2023-10-06T19:14:25.968Z,5.63
2023-10-06T19:16:53.606Z,5.93
2023-10-06T19:19:20.431Z,5.30
2023-10-06T19:21:47.317Z,4.75
2023-10-06T19:24:14.638Z,4.53
2023-10-06T19:26:41.493Z,4.30
2023-10-06T19:29:08.815Z,4.60
2023-10-06T19:31:36.503Z,4.93
2023-10-06T19:34:03.374Z,5.47
2023-10-06T19:36:35.108Z,6.20
2023-10-06T19:39:05.391Z,6.00
2023-10-06T19:41:33.644Z,6.80
2023-10-06T19:44:00.438Z,7.40
2023-10-06T19:46:28.053Z,7.55
2023-10-06T19:48:55.259Z,6.73
2023-10-06T19:51:22.691Z,6.57
2023-10-06T19:53:50.296Z,6.15
2023-10-06T19:56:18.097Z,5.40
2023-10-06T19:58:45.702Z,5.78
2023-10-06T20:01:13.698Z,4.97
2023-10-06T20:03:42.076Z,5.20
2023-10-06T20:06:09.078Z,6.20
2023-10-06T20:08:35.899Z,5.40
2023-10-06T20:11:02.777Z,5.40
2023-10-06T20:13:30.138Z,5.30
2023-10-06T20:15:57.747Z,4.93
2023-10-06T20:18:24.823Z,5.03
2023-10-06T20:20:53.981Z,4.43
2023-10-06T20:23:21.930Z,4.60
2023-10-06T20:25:48.777Z,4.20
2023-10-06T20:28:16.090Z,3.78
2023-10-06T20:30:43.069Z,4.40
2023-10-06T20:33:10.058Z,5.13
2023-10-06T20:35:36.983Z,5.20
2023-10-06T20:38:04.635Z,4.50
2023-10-06T20:40:33.849Z,4.88
2023-10-06T20:43:08.491Z,6.50
2023-10-06T20:45:35.332Z,6.22
2023-10-06T20:48:07.185Z,5.07
2023-10-06T20:50:40.257Z,4.70
2023-10-06T20:53:08.670Z,4.82
2023-10-06T20:55:36.088Z,5.53
2023-10-06T20:58:03.365Z,9.57
2023-10-06T21:00:30.972Z,10.60
2023-10-06T21:02:58.873Z,9.23
2023-10-06T21:05:26.299Z,7.03
2023-10-06T21:07:53.505Z,6.40
2023-10-06T21:10:21.502Z,6.38
2023-10-06T21:12:48.345Z,6.70
2023-10-06T21:15:15.867Z,6.80
2023-10-06T21:17:43.701Z,5.72
2023-10-06T21:20:13.457Z,6.65
2023-10-06T21:22:41.273Z,6.63
2023-10-06T21:25:15.110Z,6.32
2023-10-06T21:27:42.335Z,5.57
2023-10-06T21:30:09.417Z,5.35
2023-10-06T21:32:37.608Z,6.03
2023-10-06T21:35:07.811Z,5.38
2023-10-06T21:37:34.933Z,4.82
2023-10-06T21:40:02.667Z,7.33
2023-10-06T21:42:29.795Z,6.70
2023-10-06T21:44:56.803Z,6.18
2023-10-06T21:47:24.294Z,5.38
2023-10-06T21:49:51.182Z,5.57
2023-10-06T21:52:18.157Z,5.00
2023-10-06T21:54:44.952Z,5.35
2023-10-06T21:57:14.505Z,5.55
2023-10-06T21:59:44.402Z,4.88
2023-10-06T22:02:11.782Z,5.43
2023-10-06T22:04:38.966Z,5.10
2023-10-06T22:07:06.519Z,5.38
2023-10-06T22:09:34.761Z,5.03
2023-10-06T22:12:01.864Z,5.07
2023-10-06T22:14:36.229Z,4.63
2023-10-06T22:17:07.852Z,4.53
2023-10-06T22:19:36.564Z,4.63
2023-10-06T22:22:03.639Z,5.50
2023-10-06T22:24:30.429Z,5.05
2023-10-06T22:26:58.755Z,4.90
2023-10-06T22:29:26.086Z,5.00
2023-10-06T22:31:54.997Z,5.30
2023-10-06T22:34:23.378Z,5.30
2023-10-06T22:36:52.752Z,4.90
2023-10-06T22:39:21.337Z,5.03
2023-10-06T22:41:48.136Z,4.57
2023-10-06T22:44:14.893Z,4.05
2023-10-06T22:46:42.470Z,4.20
2023-10-06T22:49:09.554Z,4.75
2023-10-06T22:51:36.297Z,4.75
2023-10-06T22:54:03.145Z,4.83
2023-10-06T22:56:29.863Z,5.13
2023-10-06T22:58:56.549Z,8.90
2023-10-06T23:01:24.022Z,6.05
2023-10-06T23:03:50.941Z,5.05
2023-10-06T23:06:18.655Z,13.17
2023-10-06T23:08:45.453Z,9.20
2023-10-06T23:11:12.213Z,6.38
2023-10-06T23:13:40.639Z,4.97
2023-10-06T23:16:07.913Z,4.65
2023-10-06T23:18:40.746Z,4.47
2023-10-06T23:21:08.442Z,5.10
2023-10-06T23:23:38.454Z,6.18
2023-10-06T23:26:09.747Z,6.10
2023-10-06T23:28:40.592Z,11.13
2023-10-06T23:31:10.261Z,5.50
2023-10-06T23:33:38.106Z,5.50
2023-10-06T23:36:05.967Z,5.10
2023-10-06T23:38:32.698Z,4.40
2023-10-06T23:41:02.013Z,5.00
2023-10-06T23:43:31.323Z,4.47
2023-10-06T23:45:58.720Z,4.43
2023-10-06T23:48:29.567Z,4.93
2023-10-06T23:51:00.299Z,5.28
2023-10-06T23:53:29.944Z,9.90
2023-10-06T23:56:01.251Z,11.87
2023-10-06T23:58:33.587Z,6.43
